Home   Weather   Iran   Tehran   Past weeks
Flag for Iran

Past Weather in Tehran, Iran — Yesterday and Last 2 Weeks

Currently: 68 °F. Clear. (Weather station: Tehran-Mehrabad, Iran). See more current weather

Past Weather in Tehran — Graph

°F

Tehran Temperature Yesterday

Maximum temperature yesterday: 79 °F (at 4:00 pm)
Minimum temperature yesterday: 61 °F (at 4:00 am)
Average temperature yesterday: 69 °F

High & Low Weather Summary for the Past Weeks

 TemperatureHumidityPressure
High82 °F (Apr 10, 3:00 pm)50% (Apr 4, 4:00 am)30.21 "Hg (Apr 4, 4:00 am)
Low46 °F (Apr 4, 4:00 am)6% (Apr 15, 3:00 pm)29.74 "Hg (Apr 3, 4:30 am)
Average68 °F21%30.01 "Hg
* Reported Apr 2 9:30 pm — Apr 17 10:00 pm, Tehran. Weather by CustomWeather, © 2021

Note: Actual official high and low records may vary slightly from our data, if they occured in-between our weather recording intervals... More about our weather records

Tehran Weather History for the Previous 24 Hours

Scroll right to see more
 ConditionsComfort  
Time TempWeatherWind HumidityBarometerVisibility
10:00 pm
Sat, Apr 17
70 °FPassing clouds.5 mph21%30.12 "HgN/A
9:30 pm70 °FPassing clouds.5 mph20%30.12 "HgN/A
9:00 pm72 °FPassing clouds.No wind19%30.12 "HgN/A
8:30 pm73 °FPassing clouds.No wind16%30.09 "HgN/A
8:00 pm73 °FPartly sunny.5 mph16%30.09 "HgN/A
7:30 pm73 °FPartly sunny.5 mph16%30.09 "HgN/A
7:00 pm75 °FPartly sunny.9 mph16%30.09 "HgN/A
6:30 pm75 °FPartly sunny.7 mph18%30.09 "HgN/A
6:00 pm75 °FPartly sunny.5 mph18%30.09 "HgN/A
5:30 pm75 °FScattered clouds.9 mph18%30.09 "HgN/A
5:00 pm75 °FPassing clouds.9 mph18%30.09 "HgN/A
4:30 pm75 °FPassing clouds.9 mph18%30.09 "HgN/A
4:00 pm75 °FPassing clouds.9 mph18%30.09 "HgN/A
3:30 pm73 °FPassing clouds.5 mph19%30.09 "HgN/A
3:00 pm75 °FPassing clouds.12 mph16%30.09 "HgN/A
2:30 pm75 °FPassing clouds.12 mph18%30.12 "HgN/A
2:00 pm73 °FPassing clouds.12 mph19%30.12 "HgN/A
1:30 pm72 °FPassing clouds.5 mph22%30.15 "HgN/A
1:00 pm72 °FPassing clouds.5 mph22%30.15 "HgN/A
12:30 pm70 °FPassing clouds.5 mph25%30.18 "HgN/A
12:00 pm70 °FPassing clouds.9 mph25%30.18 "HgN/A
11:30 am70 °FSunny.7 mph25%30.18 "Hg10 mi
11:00 am68 °FSunny.9 mph28%30.21 "Hg10 mi
10:30 am68 °FSunny.7 mph28%30.18 "Hg10 mi
10:00 am68 °FSunny.5 mph26%30.18 "Hg10 mi
9:30 am66 °FSunny.5 mph28%30.18 "Hg10 mi
9:00 am66 °FSunny.5 mph28%30.18 "Hg10 mi
8:30 am64 °FSunny.No wind28%30.18 "Hg10 mi
8:00 am63 °FSunny.5 mph30%30.18 "Hg10 mi
7:30 am59 °FSunny.No wind36%30.15 "Hg10 mi
7:00 am57 °FSunny.5 mph39%30.15 "Hg10 mi
6:30 am59 °FClear.No wind31%30.15 "Hg10 mi
6:00 am61 °FClear.5 mph31%30.12 "Hg10 mi
5:30 am59 °FClear.No wind31%30.12 "Hg10 mi
5:00 am59 °FClear.5 mph31%30.12 "Hg10 mi
4:30 am59 °FClear.No wind31%30.12 "Hg10 mi
4:00 am61 °FClear.7 mph29%30.09 "Hg10 mi
3:30 am61 °FClear.5 mph25%30.07 "Hg10 mi
3:00 am61 °FClear.5 mph25%30.07 "Hg10 mi
2:30 am64 °FClear.No wind22%30.07 "Hg10 mi
2:00 am63 °FClear.5 mph24%30.04 "Hg10 mi
1:30 am59 °FClear.9 mph34%30.04 "Hg10 mi
1:00 am61 °FClear.12 mph34%30.04 "Hg10 mi
12:30 am63 °FClear.14 mph27%30.04 "Hg10 mi
12:00 am64 °FClear.9 mph18%30.04 "Hg10 mi
11:30 pm
Fri, Apr 16
68 °FClear.9 mph17%30.04 "Hg10 mi
11:00 pm68 °FClear.7 mph16%30.01 "Hg10 mi
Weather by CustomWeather, © 2021

See weather overview